sensor_id;sensor_type;location;lat;lon;timestamp;temperature;humidity
65462;DHT22;53236;43.666;18.444;2024-01-06T00:01:27;11.50;99.90
65462;DHT22;53236;43.666;18.444;2024-01-06T00:04:11;11.50;99.90
65462;DHT22;53236;43.666;18.444;2024-01-06T00:07:01;11.50;99.90
65462;DHT22;53236;43.666;18.444;2024-01-06T00:09:51;11.60;99.90
65462;DHT22;53236;43.666;18.444;2024-01-06T00:12:35;11.60;99.90
65462;DHT22;53236;43.666;18.444;2024-01-06T00:15:19;11.50;99.90
65462;DHT22;53236;43.666;18.444;2024-01-06T00:18:03;11.50;99.90
65462;DHT22;53236;43.666;18.444;2024-01-06T00:20:47;11.50;99.90
65462;DHT22;53236;43.666;18.444;2024-01-06T00:23:37;11.60;99.90
65462;DHT22;53236;43.666;18.444;2024-01-06T00:26:27;11.60;99.90
65462;DHT22;53236;43.666;18.444;2024-01-06T00:29:11;11.60;99.90
65462;DHT22;53236;43.666;18.444;2024-01-06T00:31:55;11.70;99.90
65462;DHT22;53236;43.666;18.444;2024-01-06T00:34:39;11.70;99.90
65462;DHT22;53236;43.666;18.444;2024-01-06T00:37:23;11.60;99.90
65462;DHT22;53236;43.666;18.444;2024-01-06T00:40:13;11.50;99.90
65462;DHT22;53236;43.666;18.444;2024-01-06T00:43:03;11.60;99.90
65462;DHT22;53236;43.666;18.444;2024-01-06T00:45:47;11.50;99.90
65462;DHT22;53236;43.666;18.444;2024-01-06T00:48:31;11.40;99.90
65462;DHT22;53236;43.666;18.444;2024-01-06T00:51:15;11.10;99.90
65462;DHT22;53236;43.666;18.444;2024-01-06T00:53:59;10.70;99.90
65462;DHT22;53236;43.666;18.444;2024-01-06T00:56:49;10.60;99.90
65462;DHT22;53236;43.666;18.444;2024-01-06T00:59:39;10.50;99.90
65462;DHT22;53236;43.666;18.444;2024-01-06T01:02:23;10.50;99.90
65462;DHT22;53236;43.666;18.444;2024-01-06T01:05:07;10.40;99.90
65462;DHT22;53236;43.666;18.444;2024-01-06T01:07:52;10.60;99.90
65462;DHT22;53236;43.666;18.444;2024-01-06T01:10:36;10.70;99.90
65462;DHT22;53236;43.666;18.444;2024-01-06T01:13:26;10.80;99.90
65462;DHT22;53236;43.666;18.444;2024-01-06T01:16:16;10.90;99.90
65462;DHT22;53236;43.666;18.444;2024-01-06T01:19:00;10.80;99.90
65462;DHT22;53236;43.666;18.444;2024-01-06T01:21:44;10.70;99.90
65462;DHT22;53236;43.666;18.444;2024-01-06T01:24:28;10.70;99.90
65462;DHT22;53236;43.666;18.444;2024-01-06T01:27:12;10.80;99.90
65462;DHT22;53236;43.666;18.444;2024-01-06T01:30:02;10.90;99.90
65462;DHT22;53236;43.666;18.444;2024-01-06T01:32:52;11.10;99.90
65462;DHT22;53236;43.666;18.444;2024-01-06T01:35:36;11.10;99.90
65462;DHT22;53236;43.666;18.444;2024-01-06T01:38:20;11.10;99.90
65462;DHT22;53236;43.666;18.444;2024-01-06T01:41:04;11.10;99.90
65462;DHT22;53236;43.666;18.444;2024-01-06T01:43:48;11.10;99.90
65462;DHT22;53236;43.666;18.444;2024-01-06T01:46:38;11.20;99.90
65462;DHT22;53236;43.666;18.444;2024-01-06T01:49:28;11.10;99.90
65462;DHT22;53236;43.666;18.444;2024-01-06T01:52:13;11.20;99.90
65462;DHT22;53236;43.666;18.444;2024-01-06T01:54:59;11.20;99.90
65462;DHT22;53236;43.666;18.444;2024-01-06T01:57:43;11.40;99.90
65462;DHT22;53236;43.666;18.444;2024-01-06T02:00:28;11.40;99.90
65462;DHT22;53236;43.666;18.444;2024-01-06T02:03:18;11.40;99.90
65462;DHT22;53236;43.666;18.444;2024-01-06T02:06:07;11.40;99.90
65462;DHT22;53236;43.666;18.444;2024-01-06T02:08:51;11.50;99.90
65462;DHT22;53236;43.666;18.444;2024-01-06T02:11:35;11.40;99.90
65462;DHT22;53236;43.666;18.444;2024-01-06T02:14:20;11.40;99.60
65462;DHT22;53236;43.666;18.444;2024-01-06T02:17:04;11.30;99.60
65462;DHT22;53236;43.666;18.444;2024-01-06T02:19:54;11.50;96.80
65462;DHT22;53236;43.666;18.444;2024-01-06T02:22:44;11.60;93.30
65462;DHT22;53236;43.666;18.444;2024-01-06T02:25:28;11.60;94.30
65462;DHT22;53236;43.666;18.444;2024-01-06T02:28:12;11.70;94.20
65462;DHT22;53236;43.666;18.444;2024-01-06T02:30:56;11.70;94.60
65462;DHT22;53236;43.666;18.444;2024-01-06T02:33:40;11.70;99.90
65462;DHT22;53236;43.666;18.444;2024-01-06T02:36:30;11.50;99.90
65462;DHT22;53236;43.666;18.444;2024-01-06T02:39:20;11.30;99.90
65462;DHT22;53236;43.666;18.444;2024-01-06T02:42:04;11.10;99.90
65462;DHT22;53236;43.666;18.444;2024-01-06T02:44:48;11.10;99.90
65462;DHT22;53236;43.666;18.444;2024-01-06T02:47:32;11.10;99.90
65462;DHT22;53236;43.666;18.444;2024-01-06T02:50:17;11.10;99.90
65462;DHT22;53236;43.666;18.444;2024-01-06T02:53:07;11.20;99.90
65462;DHT22;53236;43.666;18.444;2024-01-06T02:55:57;11.30;99.90
65462;DHT22;53236;43.666;18.444;2024-01-06T02:58:41;11.30;99.90
65462;DHT22;53236;43.666;18.444;2024-01-06T03:01:25;11.20;99.90
65462;DHT22;53236;43.666;18.444;2024-01-06T03:04:09;11.20;99.70
65462;DHT22;53236;43.666;18.444;2024-01-06T03:06:53;11.30;98.80
65462;DHT22;53236;43.666;18.444;2024-01-06T03:09:43;11.40;99.90
65462;DHT22;53236;43.666;18.444;2024-01-06T03:12:33;11.40;98.50
65462;DHT22;53236;43.666;18.444;2024-01-06T03:15:17;11.30;99.90
65462;DHT22;53236;43.666;18.444;2024-01-06T03:18:01;11.30;99.20
65462;DHT22;53236;43.666;18.444;2024-01-06T03:20:45;11.30;99.00
65462;DHT22;53236;43.666;18.444;2024-01-06T03:23:29;11.20;98.80
65462;DHT22;53236;43.666;18.444;2024-01-06T03:26:20;11.20;98.10
65462;DHT22;53236;43.666;18.444;2024-01-06T03:29:09;11.30;97.30
65462;DHT22;53236;43.666;18.444;2024-01-06T03:31:54;11.30;97.70
65462;DHT22;53236;43.666;18.444;2024-01-06T03:34:38;11.30;99.30
65462;DHT22;53236;43.666;18.444;2024-01-06T03:37:22;11.20;99.90
65462;DHT22;53236;43.666;18.444;2024-01-06T03:40:06;11.10;99.90
65462;DHT22;53236;43.666;18.444;2024-01-06T03:42:56;10.80;99.90
65462;DHT22;53236;43.666;18.444;2024-01-06T03:45:47;10.60;99.90
65462;DHT22;53236;43.666;18.444;2024-01-06T03:48:31;10.50;99.90
65462;DHT22;53236;43.666;18.444;2024-01-06T03:51:15;10.70;99.90
65462;DHT22;53236;43.666;18.444;2024-01-06T03:53:59;10.70;99.90
65462;DHT22;53236;43.666;18.444;2024-01-06T03:56:44;10.60;99.90
65462;DHT22;53236;43.666;18.444;2024-01-06T03:59:34;10.70;99.90
65462;DHT22;53236;43.666;18.444;2024-01-06T04:02:23;10.70;99.90
65462;DHT22;53236;43.666;18.444;2024-01-06T04:05:08;10.70;99.90
65462;DHT22;53236;43.666;18.444;2024-01-06T04:07:52;10.80;99.90
65462;DHT22;53236;43.666;18.444;2024-01-06T04:10:36;11.00;99.90
65462;DHT22;53236;43.666;18.444;2024-01-06T04:13:20;11.00;99.90
65462;DHT22;53236;43.666;18.444;2024-01-06T04:16:10;11.20;99.60
65462;DHT22;53236;43.666;18.444;2024-01-06T04:19:00;11.20;99.90
65462;DHT22;53236;43.666;18.444;2024-01-06T04:21:44;11.00;99.90
65462;DHT22;53236;43.666;18.444;2024-01-06T04:24:28;10.70;99.90
65462;DHT22;53236;43.666;18.444;2024-01-06T04:27:12;10.40;99.90
65462;DHT22;53236;43.666;18.444;2024-01-06T04:29:56;10.40;99.90
65462;DHT22;53236;43.666;18.444;2024-01-06T04:32:46;10.30;99.90
65462;DHT22;53236;43.666;18.444;2024-01-06T04:35:36;10.20;99.90
65462;DHT22;53236;43.666;18.444;2024-01-06T04:38:20;10.30;99.90
65462;DHT22;53236;43.666;18.444;2024-01-06T04:41:04;10.20;99.90
65462;DHT22;53236;43.666;18.444;2024-01-06T04:43:48;10.00;99.90
65462;DHT22;53236;43.666;18.444;2024-01-06T04:46:32;9.90;99.90
65462;DHT22;53236;43.666;18.444;2024-01-06T04:49:23;9.90;99.90
65462;DHT22;53236;43.666;18.444;2024-01-06T04:52:13;9.90;99.90
65462;DHT22;53236;43.666;18.444;2024-01-06T04:55:03;10.10;99.90
65462;DHT22;53236;43.666;18.444;2024-01-06T04:57:49;10.10;99.90
65462;DHT22;53236;43.666;18.444;2024-01-06T05:00:33;10.10;99.90
65462;DHT22;53236;43.666;18.444;2024-01-06T05:03:17;9.90;99.90
65462;DHT22;53236;43.666;18.444;2024-01-06T05:06:08;9.70;99.90
65462;DHT22;53236;43.666;18.444;2024-01-06T05:08:58;9.60;99.90
65462;DHT22;53236;43.666;18.444;2024-01-06T05:11:43;9.60;99.90
65462;DHT22;53236;43.666;18.444;2024-01-06T05:14:27;9.50;99.90
65462;DHT22;53236;43.666;18.444;2024-01-06T05:17:12;9.70;99.90
65462;DHT22;53236;43.666;18.444;2024-01-06T05:19:56;9.80;99.90
65462;DHT22;53236;43.666;18.444;2024-01-06T05:22:46;9.90;99.90
65462;DHT22;53236;43.666;18.444;2024-01-06T05:25:36;10.10;99.90
65462;DHT22;53236;43.666;18.444;2024-01-06T05:28:20;10.20;99.90
65462;DHT22;53236;43.666;18.444;2024-01-06T05:31:04;10.20;99.90
65462;DHT22;53236;43.666;18.444;2024-01-06T05:33:48;10.40;99.90
65462;DHT22;53236;43.666;18.444;2024-01-06T05:36:32;10.60;99.90
65462;DHT22;53236;43.666;18.444;2024-01-06T05:39:21;10.70;99.90
65462;DHT22;53236;43.666;18.444;2024-01-06T05:42:13;10.70;99.90
65462;DHT22;53236;43.666;18.444;2024-01-06T05:44:57;10.70;99.90
65462;DHT22;53236;43.666;18.444;2024-01-06T05:47:41;10.80;99.90
65462;DHT22;53236;43.666;18.444;2024-01-06T05:50:25;10.90;99.90
65462;DHT22;53236;43.666;18.444;2024-01-06T05:53:09;11.00;99.90
65462;DHT22;53236;43.666;18.444;2024-01-06T05:55:59;11.00;99.90
65462;DHT22;53236;43.666;18.444;2024-01-06T05:58:50;11.10;99.90
65462;DHT22;53236;43.666;18.444;2024-01-06T06:01:34;11.10;99.90
65462;DHT22;53236;43.666;18.444;2024-01-06T06:04:18;11.10;99.90
65462;DHT22;53236;43.666;18.444;2024-01-06T06:07:02;11.00;99.90
65462;DHT22;53236;43.666;18.444;2024-01-06T06:09:46;11.00;99.90
65462;DHT22;53236;43.666;18.444;2024-01-06T06:12:36;10.60;99.90
65462;DHT22;53236;43.666;18.444;2024-01-06T06:15:25;10.40;99.90
65462;DHT22;53236;43.666;18.444;2024-01-06T06:18:09;10.30;99.90
65462;DHT22;53236;43.666;18.444;2024-01-06T06:20:53;10.30;99.90
65462;DHT22;53236;43.666;18.444;2024-01-06T06:23:37;10.40;99.90
65462;DHT22;53236;43.666;18.444;2024-01-06T06:26:22;10.30;99.90
65462;DHT22;53236;43.666;18.444;2024-01-06T06:29:12;10.20;99.90
65462;DHT22;53236;43.666;18.444;2024-01-06T06:32:02;10.20;99.90
65462;DHT22;53236;43.666;18.444;2024-01-06T06:34:46;10.20;99.90
65462;DHT22;53236;43.666;18.444;2024-01-06T06:37:30;10.30;99.90
65462;DHT22;53236;43.666;18.444;2024-01-06T06:40:14;10.30;99.90
65462;DHT22;53236;43.666;18.444;2024-01-06T06:42:59;10.10;99.90
65462;DHT22;53236;43.666;18.444;2024-01-06T06:45:49;10.10;99.90
65462;DHT22;53236;43.666;18.444;2024-01-06T06:48:39;10.20;99.90
65462;DHT22;53236;43.666;18.444;2024-01-06T06:51:23;10.20;99.90
65462;DHT22;53236;43.666;18.444;2024-01-06T06:54:07;10.20;99.90
65462;DHT22;53236;43.666;18.444;2024-01-06T06:56:51;10.10;99.90
65462;DHT22;53236;43.666;18.444;2024-01-06T06:59:35;10.10;99.90
65462;DHT22;53236;43.666;18.444;2024-01-06T07:02:26;10.20;99.90
65462;DHT22;53236;43.666;18.444;2024-01-06T07:05:15;10.30;99.90
65462;DHT22;53236;43.666;18.444;2024-01-06T07:08:00;10.40;99.90
65462;DHT22;53236;43.666;18.444;2024-01-06T07:10:45;10.20;99.90
65462;DHT22;53236;43.666;18.444;2024-01-06T07:13:29;10.20;99.90
65462;DHT22;53236;43.666;18.444;2024-01-06T07:16:13;10.30;99.90
65462;DHT22;53236;43.666;18.444;2024-01-06T07:19:03;10.30;99.90
65462;DHT22;53236;43.666;18.444;2024-01-06T07:21:54;10.30;99.90
65462;DHT22;53236;43.666;18.444;2024-01-06T07:24:44;10.40;99.90
65462;DHT22;53236;43.666;18.444;2024-01-06T07:27:28;10.40;99.90
65462;DHT22;53236;43.666;18.444;2024-01-06T07:30:12;10.60;99.90
65462;DHT22;53236;43.666;18.444;2024-01-06T07:32:57;10.60;99.90
65462;DHT22;53236;43.666;18.444;2024-01-06T07:35:46;10.60;99.90
65462;DHT22;53236;43.666;18.444;2024-01-06T07:38:37;10.70;99.90
65462;DHT22;53236;43.666;18.444;2024-01-06T07:41:21;10.80;99.90
65462;DHT22;53236;43.666;18.444;2024-01-06T07:44:05;10.80;99.90
65462;DHT22;53236;43.666;18.444;2024-01-06T07:46:50;10.80;99.90
65462;DHT22;53236;43.666;18.444;2024-01-06T07:49:34;10.80;99.90
65462;DHT22;53236;43.666;18.444;2024-01-06T07:52:24;10.80;99.90
65462;DHT22;53236;43.666;18.444;2024-01-06T07:55:14;10.80;99.90
65462;DHT22;53236;43.666;18.444;2024-01-06T07:57:59;10.70;99.90
65462;DHT22;53236;43.666;18.444;2024-01-06T08:00:43;10.70;99.90
65462;DHT22;53236;43.666;18.444;2024-01-06T08:03:27;10.80;99.90
65462;DHT22;53236;43.666;18.444;2024-01-06T08:06:12;10.90;99.90
65462;DHT22;53236;43.666;18.444;2024-01-06T08:09:01;10.90;99.90
65462;DHT22;53236;43.666;18.444;2024-01-06T08:11:51;10.90;99.90
65462;DHT22;53236;43.666;18.444;2024-01-06T08:14:36;11.00;99.90
65462;DHT22;53236;43.666;18.444;2024-01-06T08:17:20;11.10;99.90
65462;DHT22;53236;43.666;18.444;2024-01-06T08:20:04;11.00;99.90
65462;DHT22;53236;43.666;18.444;2024-01-06T08:22:48;11.10;99.90
65462;DHT22;53236;43.666;18.444;2024-01-06T08:25:38;11.20;99.90
65462;DHT22;53236;43.666;18.444;2024-01-06T08:28:29;11.30;99.90
65462;DHT22;53236;43.666;18.444;2024-01-06T08:31:13;11.20;99.90
65462;DHT22;53236;43.666;18.444;2024-01-06T08:33:57;11.00;99.90
65462;DHT22;53236;43.666;18.444;2024-01-06T08:36:41;10.90;99.90
65462;DHT22;53236;43.666;18.444;2024-01-06T08:39:25;10.90;99.90
65462;DHT22;53236;43.666;18.444;2024-01-06T08:42:15;11.00;99.90
65462;DHT22;53236;43.666;18.444;2024-01-06T08:45:06;11.00;99.90
65462;DHT22;53236;43.666;18.444;2024-01-06T08:47:56;11.20;99.90
65462;DHT22;53236;43.666;18.444;2024-01-06T08:50:40;11.70;99.90
65462;DHT22;53236;43.666;18.444;2024-01-06T08:53:24;12.20;97.70
65462;DHT22;53236;43.666;18.444;2024-01-06T08:56:09;12.10;97.40
65462;DHT22;53236;43.666;18.444;2024-01-06T08:58:58;12.10;97.10
65462;DHT22;53236;43.666;18.444;2024-01-06T09:01:48;12.00;96.60
65462;DHT22;53236;43.666;18.444;2024-01-06T09:04:32;11.90;97.90
65462;DHT22;53236;43.666;18.444;2024-01-06T09:07:16;11.60;99.90
65462;DHT22;53236;43.666;18.444;2024-01-06T09:10:01;11.40;99.90
65462;DHT22;53236;43.666;18.444;2024-01-06T09:12:45;11.10;99.90
65462;DHT22;53236;43.666;18.444;2024-01-06T09:15:34;11.10;99.90
65462;DHT22;53236;43.666;18.444;2024-01-06T09:18:28;11.20;99.90
65462;DHT22;53236;43.666;18.444;2024-01-06T09:21:18;11.40;99.90
65462;DHT22;53236;43.666;18.444;2024-01-06T09:24:02;11.40;99.90
65462;DHT22;53236;43.666;18.444;2024-01-06T09:26:47;11.40;99.90
65462;DHT22;53236;43.666;18.444;2024-01-06T09:29:31;11.30;99.90
65462;DHT22;53236;43.666;18.444;2024-01-06T09:32:20;11.20;99.90
65462;DHT22;53236;43.666;18.444;2024-01-06T09:35:10;11.10;99.90
65462;DHT22;53236;43.666;18.444;2024-01-06T09:37:54;11.00;99.90
65462;DHT22;53236;43.666;18.444;2024-01-06T09:40:43;10.90;99.90
65462;DHT22;53236;43.666;18.444;2024-01-06T09:43:27;10.60;99.90
65462;DHT22;53236;43.666;18.444;2024-01-06T09:46:21;10.20;99.90
65462;DHT22;53236;43.666;18.444;2024-01-06T09:49:13;10.00;99.90
65462;DHT22;53236;43.666;18.444;2024-01-06T09:52:04;9.90;99.90
65462;DHT22;53236;43.666;18.444;2024-01-06T09:54:53;10.00;99.90
65462;DHT22;53236;43.666;18.444;2024-01-06T09:57:38;10.10;99.90
65462;DHT22;53236;43.666;18.444;2024-01-06T10:00:22;10.10;99.90
65462;DHT22;53236;43.666;18.444;2024-01-06T10:03:06;10.10;99.90
65462;DHT22;53236;43.666;18.444;2024-01-06T10:05:56;10.00;99.90
65462;DHT22;53236;43.666;18.444;2024-01-06T10:08:51;10.10;99.90
65462;DHT22;53236;43.666;18.444;2024-01-06T10:11:35;10.10;99.90
65462;DHT22;53236;43.666;18.444;2024-01-06T10:14:20;10.20;99.90
65462;DHT22;53236;43.666;18.444;2024-01-06T10:17:06;10.20;99.90
65462;DHT22;53236;43.666;18.444;2024-01-06T10:19:51;10.20;99.90
65462;DHT22;53236;43.666;18.444;2024-01-06T10:22:42;10.20;99.90
65462;DHT22;53236;43.666;18.444;2024-01-06T10:25:32;10.10;99.90
65462;DHT22;53236;43.666;18.444;2024-01-06T10:28:24;9.90;99.90
65462;DHT22;53236;43.666;18.444;2024-01-06T10:31:09;9.90;99.90
65462;DHT22;53236;43.666;18.444;2024-01-06T10:33:54;9.80;99.90
65462;DHT22;53236;43.666;18.444;2024-01-06T10:36:39;9.80;99.90
65462;DHT22;53236;43.666;18.444;2024-01-06T10:39:28;9.80;99.90
65462;DHT22;53236;43.666;18.444;2024-01-06T10:42:18;9.90;99.90
65462;DHT22;53236;43.666;18.444;2024-01-06T10:45:03;9.90;99.90
65462;DHT22;53236;43.666;18.444;2024-01-06T10:47:49;10.00;99.90
65462;DHT22;53236;43.666;18.444;2024-01-06T10:50:33;10.20;99.90
65462;DHT22;53236;43.666;18.444;2024-01-06T10:53:17;10.20;99.90
65462;DHT22;53236;43.666;18.444;2024-01-06T10:56:09;10.20;99.90
65462;DHT22;53236;43.666;18.444;2024-01-06T10:59:01;10.30;99.90
65462;DHT22;53236;43.666;18.444;2024-01-06T11:01:47;10.40;99.90
65462;DHT22;53236;43.666;18.444;2024-01-06T11:04:33;10.40;99.90
65462;DHT22;53236;43.666;18.444;2024-01-06T11:07:20;10.50;99.90
65462;DHT22;53236;43.666;18.444;2024-01-06T11:10:16;10.50;99.90
65462;DHT22;53236;43.666;18.444;2024-01-06T11:13:12;10.60;99.90
65462;DHT22;53236;43.666;18.444;2024-01-06T11:16:02;10.70;99.90
65462;DHT22;53236;43.666;18.444;2024-01-06T11:18:47;10.60;99.90
65462;DHT22;53236;43.666;18.444;2024-01-06T11:21:34;10.50;99.90
65462;DHT22;53236;43.666;18.444;2024-01-06T11:24:19;10.40;99.90
65462;DHT22;53236;43.666;18.444;2024-01-06T11:27:04;10.30;99.90
65462;DHT22;53236;43.666;18.444;2024-01-06T11:29:55;10.30;99.90
65462;DHT22;53236;43.666;18.444;2024-01-06T11:32:45;10.30;99.90
65462;DHT22;53236;43.666;18.444;2024-01-06T11:35:37;10.40;99.90
65462;DHT22;53236;43.666;18.444;2024-01-06T11:38:22;10.60;99.90
65462;DHT22;53236;43.666;18.444;2024-01-06T11:41:13;10.80;99.90
65462;DHT22;53236;43.666;18.444;2024-01-06T11:44:19;10.90;99.90
65462;DHT22;53236;43.666;18.444;2024-01-06T11:47:11;10.90;99.90
65462;DHT22;53236;43.666;18.444;2024-01-06T11:50:02;11.00;99.90
65462;DHT22;53236;43.666;18.444;2024-01-06T11:52:46;11.10;99.90
65462;DHT22;53236;43.666;18.444;2024-01-06T11:55:31;10.90;99.90
65462;DHT22;53236;43.666;18.444;2024-01-06T11:58:18;10.80;99.90
65462;DHT22;53236;43.666;18.444;2024-01-06T12:01:02;10.50;99.90
65462;DHT22;53236;43.666;18.444;2024-01-06T12:03:55;10.40;99.90
65462;DHT22;53236;43.666;18.444;2024-01-06T12:06:45;10.50;99.90
65462;DHT22;53236;43.666;18.444;2024-01-06T12:09:29;10.80;99.90
65462;DHT22;53236;43.666;18.444;2024-01-06T12:12:17;11.30;99.90
65462;DHT22;53236;43.666;18.444;2024-01-06T12:15:01;11.40;99.90
65462;DHT22;53236;43.666;18.444;2024-01-06T12:17:46;11.60;99.90
65462;DHT22;53236;43.666;18.444;2024-01-06T12:20:36;11.80;99.90
65462;DHT22;53236;43.666;18.444;2024-01-06T12:23:28;11.80;99.90
65462;DHT22;53236;43.666;18.444;2024-01-06T12:26:12;11.60;99.90
65462;DHT22;53236;43.666;18.444;2024-01-06T12:28:56;11.50;99.90
65462;DHT22;53236;43.666;18.444;2024-01-06T12:31:41;11.50;99.90
65462;DHT22;53236;43.666;18.444;2024-01-06T12:34:25;11.50;99.90
65462;DHT22;53236;43.666;18.444;2024-01-06T12:37:15;11.40;99.90
65462;DHT22;53236;43.666;18.444;2024-01-06T12:40:07;11.10;99.90
65462;DHT22;53236;43.666;18.444;2024-01-06T12:42:52;11.20;99.90
65462;DHT22;53236;43.666;18.444;2024-01-06T12:45:36;11.20;99.90
65462;DHT22;53236;43.666;18.444;2024-01-06T12:48:20;11.10;99.90
65462;DHT22;53236;43.666;18.444;2024-01-06T12:51:04;10.90;99.90
65462;DHT22;53236;43.666;18.444;2024-01-06T12:53:54;10.90;99.90
65462;DHT22;53236;43.666;18.444;2024-01-06T12:56:44;10.90;99.90
65462;DHT22;53236;43.666;18.444;2024-01-06T12:59:28;11.00;99.90
65462;DHT22;53236;43.666;18.444;2024-01-06T13:02:12;11.00;99.90
65462;DHT22;53236;43.666;18.444;2024-01-06T13:04:57;11.10;99.90
65462;DHT22;53236;43.666;18.444;2024-01-06T13:07:41;11.10;99.90
65462;DHT22;53236;43.666;18.444;2024-01-06T13:10:30;10.90;99.90
65462;DHT22;53236;43.666;18.444;2024-01-06T13:13:20;10.80;99.90
65462;DHT22;53236;43.666;18.444;2024-01-06T13:16:04;10.70;99.90
65462;DHT22;53236;43.666;18.444;2024-01-06T13:18:48;10.60;99.90
65462;DHT22;53236;43.666;18.444;2024-01-06T13:21:32;10.50;99.90
65462;DHT22;53236;43.666;18.444;2024-01-06T13:24:17;10.30;99.90
65462;DHT22;53236;43.666;18.444;2024-01-06T13:27:06;10.00;99.90
65462;DHT22;53236;43.666;18.444;2024-01-06T13:29:56;9.80;99.90
65462;DHT22;53236;43.666;18.444;2024-01-06T13:32:40;9.80;99.90
65462;DHT22;53236;43.666;18.444;2024-01-06T13:35:25;9.80;99.90
65462;DHT22;53236;43.666;18.444;2024-01-06T13:38:09;9.80;99.90
65462;DHT22;53236;43.666;18.444;2024-01-06T13:40:54;9.80;99.90
65462;DHT22;53236;43.666;18.444;2024-01-06T13:43:43;9.80;99.90
65462;DHT22;53236;43.666;18.444;2024-01-06T13:46:33;9.80;99.90
65462;DHT22;53236;43.666;18.444;2024-01-06T13:49:17;9.80;99.90
65462;DHT22;53236;43.666;18.444;2024-01-06T13:52:02;9.90;99.90
65462;DHT22;53236;43.666;18.444;2024-01-06T13:54:46;9.90;99.90
65462;DHT22;53236;43.666;18.444;2024-01-06T13:57:32;9.80;99.90
65462;DHT22;53236;43.666;18.444;2024-01-06T14:00:22;9.80;99.90
65462;DHT22;53236;43.666;18.444;2024-01-06T14:03:12;9.70;99.90
65462;DHT22;53236;43.666;18.444;2024-01-06T14:05:56;9.70;99.90
65462;DHT22;53236;43.666;18.444;2024-01-06T14:08:40;9.70;99.90
65462;DHT22;53236;43.666;18.444;2024-01-06T14:11:25;9.70;99.90
65462;DHT22;53236;43.666;18.444;2024-01-06T14:14:10;9.80;99.90
65462;DHT22;53236;43.666;18.444;2024-01-06T14:17:00;9.70;99.90
65462;DHT22;53236;43.666;18.444;2024-01-06T14:19:50;9.70;99.90
65462;DHT22;53236;43.666;18.444;2024-01-06T14:22:34;9.70;99.90
65462;DHT22;53236;43.666;18.444;2024-01-06T14:25:18;9.80;99.90
65462;DHT22;53236;43.666;18.444;2024-01-06T14:28:02;9.80;99.90
65462;DHT22;53236;43.666;18.444;2024-01-06T14:30:47;9.90;99.90
65462;DHT22;53236;43.666;18.444;2024-01-06T14:33:37;9.90;99.90
65462;DHT22;53236;43.666;18.444;2024-01-06T14:36:27;9.80;99.90
65462;DHT22;53236;43.666;18.444;2024-01-06T14:39:11;9.80;99.90
65462;DHT22;53236;43.666;18.444;2024-01-06T14:41:55;9.80;99.90
65462;DHT22;53236;43.666;18.444;2024-01-06T14:44:39;9.80;99.90
65462;DHT22;53236;43.666;18.444;2024-01-06T14:47:23;9.80;99.90
65462;DHT22;53236;43.666;18.444;2024-01-06T14:50:13;9.90;99.90
65462;DHT22;53236;43.666;18.444;2024-01-06T14:53:03;9.90;99.90
65462;DHT22;53236;43.666;18.444;2024-01-06T14:55:47;9.80;99.90
65462;DHT22;53236;43.666;18.444;2024-01-06T14:58:31;9.80;99.90
65462;DHT22;53236;43.666;18.444;2024-01-06T15:01:15;9.90;99.90
65462;DHT22;53236;43.666;18.444;2024-01-06T15:03:59;9.90;99.90
65462;DHT22;53236;43.666;18.444;2024-01-06T15:06:49;9.80;99.90
65462;DHT22;53236;43.666;18.444;2024-01-06T15:09:39;9.80;99.90
65462;DHT22;53236;43.666;18.444;2024-01-06T15:12:24;9.80;99.90
65462;DHT22;53236;43.666;18.444;2024-01-06T15:15:08;9.80;99.90
65462;DHT22;53236;43.666;18.444;2024-01-06T15:17:52;9.80;99.90
65462;DHT22;53236;43.666;18.444;2024-01-06T15:20:36;9.70;99.90
65462;DHT22;53236;43.666;18.444;2024-01-06T15:23:26;9.70;99.90
65462;DHT22;53236;43.666;18.444;2024-01-06T15:26:25;9.70;99.90
65462;DHT22;53236;43.666;18.444;2024-01-06T15:29:10;9.70;99.90
65462;DHT22;53236;43.666;18.444;2024-01-06T15:31:54;9.80;99.90
65462;DHT22;53236;43.666;18.444;2024-01-06T15:34:39;9.80;99.90
65462;DHT22;53236;43.666;18.444;2024-01-06T15:37:23;9.80;99.90
65462;DHT22;53236;43.666;18.444;2024-01-06T15:40:13;9.90;99.90
65462;DHT22;53236;43.666;18.444;2024-01-06T15:43:03;9.90;99.90
65462;DHT22;53236;43.666;18.444;2024-01-06T15:45:48;9.90;99.90
65462;DHT22;53236;43.666;18.444;2024-01-06T15:48:32;9.80;99.90
65462;DHT22;53236;43.666;18.444;2024-01-06T15:51:16;9.80;99.90
65462;DHT22;53236;43.666;18.444;2024-01-06T15:54:00;9.70;99.90
65462;DHT22;53236;43.666;18.444;2024-01-06T15:56:50;9.80;99.90
65462;DHT22;53236;43.666;18.444;2024-01-06T15:59:40;9.70;99.90
65462;DHT22;53236;43.666;18.444;2024-01-06T16:02:24;9.70;99.90
65462;DHT22;53236;43.666;18.444;2024-01-06T16:05:08;9.80;99.90
65462;DHT22;53236;43.666;18.444;2024-01-06T16:07:53;9.80;99.90
65462;DHT22;53236;43.666;18.444;2024-01-06T16:10:37;9.80;99.90
65462;DHT22;53236;43.666;18.444;2024-01-06T16:13:27;9.70;99.90
65462;DHT22;53236;43.666;18.444;2024-01-06T16:16:11;9.70;99.90
65462;DHT22;53236;43.666;18.444;2024-01-06T16:18:56;9.70;99.90
65462;DHT22;53236;43.666;18.444;2024-01-06T16:21:40;9.60;99.90
65462;DHT22;53236;43.666;18.444;2024-01-06T16:24:24;9.70;99.90
65462;DHT22;53236;43.666;18.444;2024-01-06T16:27:08;9.60;99.90
65462;DHT22;53236;43.666;18.444;2024-01-06T16:29:58;9.60;99.90
65462;DHT22;53236;43.666;18.444;2024-01-06T16:32:42;9.60;99.90
65462;DHT22;53236;43.666;18.444;2024-01-06T16:35:26;9.60;99.90
65462;DHT22;53236;43.666;18.444;2024-01-06T16:38:10;9.50;99.90
65462;DHT22;53236;43.666;18.444;2024-01-06T16:40:54;9.50;99.90
65462;DHT22;53236;43.666;18.444;2024-01-06T16:43:38;9.60;99.90
65462;DHT22;53236;43.666;18.444;2024-01-06T16:46:28;9.50;99.90
65462;DHT22;53236;43.666;18.444;2024-01-06T16:49:12;9.50;99.90
65462;DHT22;53236;43.666;18.444;2024-01-06T16:51:57;9.50;99.90
65462;DHT22;53236;43.666;18.444;2024-01-06T16:54:41;9.50;99.90
65462;DHT22;53236;43.666;18.444;2024-01-06T16:57:25;9.50;99.90
65462;DHT22;53236;43.666;18.444;2024-01-06T17:00:10;9.50;99.90
65462;DHT22;53236;43.666;18.444;2024-01-06T17:03:00;9.50;99.90
65462;DHT22;53236;43.666;18.444;2024-01-06T17:05:50;9.50;99.90
65462;DHT22;53236;43.666;18.444;2024-01-06T17:08:34;9.40;99.90
65462;DHT22;53236;43.666;18.444;2024-01-06T17:11:18;9.40;99.90
65462;DHT22;53236;43.666;18.444;2024-01-06T17:14:02;9.40;99.90
65462;DHT22;53236;43.666;18.444;2024-01-06T17:16:47;9.30;99.90
65462;DHT22;53236;43.666;18.444;2024-01-06T17:19:37;9.20;99.90